createdAt,value
2017-11-20T00:00:09.773Z,2.8
2017-11-20T00:15:03.081Z,2.8
2017-11-20T00:30:03.286Z,2.8
2017-11-20T00:45:02.877Z,2.9
2017-11-20T01:00:03.614Z,2.9
2017-11-20T01:15:03.148Z,2.9
2017-11-20T01:30:06.687Z,2.9
2017-11-20T01:45:05.173Z,2.9
2017-11-20T02:00:05.240Z,2.9
2017-11-20T02:15:03.902Z,2.9
2017-11-20T02:30:03.367Z,3.1
2017-11-20T02:45:03.213Z,3.2
2017-11-20T03:00:07.966Z,3.1
2017-11-20T03:15:02.542Z,2.8
2017-11-20T03:30:04.340Z,2.8
2017-11-20T03:45:02.905Z,2.8
2017-11-20T04:00:03.612Z,2.9
2017-11-20T04:15:03.155Z,2.9
2017-11-20T04:30:03.806Z,3
2017-11-20T04:45:03.597Z,3.1
2017-11-20T05:00:03.214Z,3.1
2017-11-20T05:15:02.867Z,3.1
2017-11-20T05:30:02.563Z,3.2
2017-11-20T05:45:03.241Z,3.2
2017-11-20T06:00:02.923Z,3.2
2017-11-20T06:15:02.700Z,3.2
2017-11-20T06:30:02.523Z,3.2
2017-11-20T06:45:03.192Z,3.1
2017-11-20T07:00:04.558Z,3.2
2017-11-20T07:15:02.943Z,3.2
2017-11-20T07:30:02.710Z,3.2
2017-11-20T07:45:03.264Z,3.4
2017-11-20T08:00:02.978Z,3.5
2017-11-20T08:15:02.535Z,3.7
2017-11-20T08:30:03.180Z,3.6
2017-11-20T08:45:02.788Z,3.8
2017-11-20T09:00:03.385Z,4.1
2017-11-20T09:15:02.944Z,4.4
2017-11-20T09:30:02.700Z,4.5
2017-11-20T09:45:03.244Z,4.6
2017-11-20T10:00:02.871Z,4.6
2017-11-20T10:15:03.460Z,4.6
2017-11-20T10:30:03.113Z,4.5
2017-11-20T10:45:02.692Z,4.6
2017-11-20T11:00:03.397Z,4.6
2017-11-20T11:15:03.075Z,4.8
2017-11-20T11:30:02.772Z,4.9
2017-11-20T11:45:03.396Z,4.9
2017-11-20T12:00:03.029Z,4.8
2017-11-20T12:15:02.662Z,4.8
2017-11-20T12:30:03.444Z,4.7
2017-11-20T12:45:03.228Z,4.6
2017-11-20T13:00:02.862Z,4.6
2017-11-20T13:15:03.458Z,4.4
2017-11-20T13:30:03.096Z,3.9
2017-11-20T13:45:02.662Z,3.6
2017-11-20T14:00:03.283Z,3.6
2017-11-20T14:15:02.878Z,3.2
2017-11-20T14:30:02.528Z,3
2017-11-20T14:45:03.134Z,3.1
2017-11-20T15:00:02.768Z,3
2017-11-20T15:15:03.382Z,2.8
2017-11-20T15:30:03.031Z,2.6
2017-11-20T15:45:02.663Z,2.5
2017-11-20T16:00:03.210Z,2.4
2017-11-20T16:15:02.790Z,2.3
2017-11-20T16:30:06.066Z,2.3
2017-11-20T16:45:02.679Z,2.2
2017-11-20T17:00:03.281Z,2.2
2017-11-20T17:15:02.852Z,2.2
2017-11-20T17:30:02.529Z,2.2
2017-11-20T17:45:03.118Z,2.2
2017-11-20T18:00:02.729Z,2.2
2017-11-20T18:15:03.256Z,2.2
2017-11-20T18:30:02.934Z,2.2
2017-11-20T18:45:02.517Z,2.2
2017-11-20T19:00:03.128Z,2.1
2017-11-20T19:15:02.960Z,2.1
2017-11-20T19:30:02.552Z,2.2
2017-11-20T19:45:03.499Z,2.2
2017-11-20T20:00:03.194Z,2.2
2017-11-20T20:15:02.817Z,2.4
2017-11-20T20:30:03.668Z,2.4
2017-11-20T20:45:03.281Z,2.4
2017-11-20T21:00:02.836Z,2.8
2017-11-20T21:15:03.473Z,3.1
2017-11-20T21:30:03.115Z,3.2
2017-11-20T21:45:02.737Z,3.3
2017-11-20T22:00:03.363Z,3.3
2017-11-20T22:15:03.001Z,3.3
2017-11-20T22:30:02.672Z,3.3
2017-11-20T22:45:03.265Z,3.4
2017-11-20T23:00:02.897Z,3.5
2017-11-20T23:15:03.479Z,3.6
2017-11-20T23:30:04.603Z,3.7
2017-11-20T23:45:02.652Z,3.8
